Latest Coastal Weather Observations for Ulladulla

IDN60701

Issued at 6:35 pm EST Saturday 2 August 2014 (issued every 10 minutes, with the page automatically refreshed every 10 minutes)

About coastal observations | Map of coastal stations | Coastal observations for NSW | Marine services | Other Formats
Station Details ID: 069138 Name: ULLADULLA AWS Lat: -35.36 Lon: 150.48 Height: 35.7 m
Data from the previous 72 hours. | See also: Recent months at Ulladulla
Date/Time
EST
Temp

°C
Wind Pressure Rain
since 9am
mm
Weather Cloud Vis
km
Sea
Height
m
Swell
Dir
 
Speed
knots
Gust
knots
hPa Trend Height
m
Period
s
Dir
02/06:30pm 12.8 S 13 17 1029.5 - 0.0 - - - - - - -
02/06:00pm 12.4 S 11 15 1029.2 - 0.0 - - - - - - -
02/05:30pm 12.3 S 11 16 1028.7 - 0.0 - - - - - - -
02/05:00pm 12.4 S 12 17 1028.3 - 0.0 - - - - - - -
02/04:30pm 12.8 S 12 17 1028.1 - 0.0 - - - - - - -
02/04:00pm 13.0 S 12 16 1027.7 - 0.0 - - - - - - -
02/03:30pm 13.1 S 14 19 1027.2 - 0.0 - - - - - - -
02/03:00pm 13.3 S 13 21 1027.0 - 0.0 - - - - - - -
02/02:30pm 13.4 S 18 24 1026.6 - 0.0 - - - - - - -
02/02:00pm 13.4 S 19 25 1026.2 - 0.0 - - - - - - -
02/01:48pm 13.5 S 18 28 1026.1 - 0.0 - - - - - - -
02/01:30pm 13.5 S 20 26 1026.1 - 0.0 - - - - - - -
02/01:00pm 13.7 S 20 27 1025.7 - 0.0 - - - - - - -
02/12:46pm 13.6 S 17 27 1025.7 - 0.0 - - - - - - -
02/12:30pm 13.6 S 16 22 1026.0 - 0.0 - - - - - - -
02/12:00pm 13.5 S 12 19 1026.1 - 0.0 - - - - - - -
02/11:30am 13.1 S 13 22 1025.9 - 0.0 - - - - - - -
02/11:00am 12.7 SSW 10 16 1026.0 - 0.0 - - - - - - -
02/10:30am 12.2 SSW 10 16 1025.6 - 0.0 - - - - - - -
02/10:00am 11.9 SW 8 13 1025.5 - 0.0 - - - - - - -
02/09:30am 10.7 WSW 8 15 1024.9 - 0.0 - - - - - - -
02/09:00am 10.2 WSW 8 13 1024.7 - 0.0 - - - - - - -
02/08:30am 9.7 W 6 11 1024.1 - 0.0 - - - - - - -
02/08:00am 8.3 W 6 10 1023.4 - 0.0 - - - - - - -
02/07:30am 7.2 W 5 7 1022.9 - 0.0 - - - - - - -
02/07:00am 6.1 W 4 5 1021.9 - 0.0 - - - - - - -
02/06:30am 6.7 W 3 6 1021.2 - 0.0 - - - - - - -
02/06:00am 6.8 WNW 4 7 1020.5 - 0.0 - - - - - - -
02/05:30am 7.0 W 6 10 1019.7 - 0.0 - - - - - - -
02/05:00am 7.5 W 5 10 1019.0 - 0.0 - - - - - - -
02/04:30am 8.3 W 7 12 1018.7 - 0.0 - - - - - - -
02/04:00am 8.3 W 6 10 1018.3 - 0.0 - - - - - - -
02/03:30am 8.3 W 7 14 1017.6 - 0.0 - - - - - - -
02/03:00am 8.0 W 7 14 1017.1 - 0.0 - - - - - - -
02/02:30am 8.2 W 9 16 1016.6 - 0.0 - - - - - - -
02/02:00am 8.4 W 9 16 1016.1 - 0.0 - - - - - - -
02/01:30am 8.3 W 7 16 1015.7 - 0.0 - - - - - - -
02/01:00am 8.5 W 8 14 1015.4 - 0.0 - - - - - - -
02/12:30am 8.4 W 7 13 1015.3 - 0.0 - - - - - - -
02/12:00am 8.2 W 7 15 1015.0 - 0.0 - - - - - - -
 
Date/Time
EST
Temp

°C
Wind Pressure Rain
since 9am
mm
Weather Cloud Vis
km
Sea
Height
m
Swell
Dir
 
Speed
knots
Gust
knots
hPa Trend Height
m
Period
s
Dir
01/11:30pm 8.4 W 8 15 1014.7 - 0.0 - - - - - - -
01/11:00pm 8.2 W 6 13 1014.6 - 0.0 - - - - - - -
01/10:30pm 8.4 W 8 14 1014.1 - 0.0 - - - - - - -
01/10:00pm 8.4 W 8 20 1013.9 - 0.0 - - - - - - -
01/09:30pm 8.8 WNW 10 19 1013.3 - 0.0 - - - - - - -
01/09:00pm 8.6 W 7 17 1013.0 - 0.0 - - - - - - -
01/08:30pm 9.1 W 10 18 1012.7 - 0.0 - - - - - - -
01/08:00pm 8.8 W 6 14 1012.8 - 0.0 - - - - - - -
01/07:30pm 8.8 W 4 16 1012.3 - 0.0 - - - - - - -
01/07:28pm 9.1 WNW 4 16 1012.3 - 0.0 - - - - - - -
01/07:00pm 9.4 W 13 24 1010.3 - 0.0 - - - - - - -
01/06:30pm 9.9 W 13 24 1009.4 - 0.0 - - - - - - -
01/06:00pm 10.2 WNW 10 23 1009.1 - 0.0 - - - - - - -
01/05:30pm 10.2 W 5 11 1009.3 - 0.0 - - - - - - -
01/05:00pm 11.1 WNW 4 10 1008.7 - 0.0 - - - - - - -
01/04:30pm 12.4 W 5 12 1008.1 - 0.0 - - - - - - -
01/04:00pm 13.0 WNW 5 12 1006.9 - 0.0 - - - - - - -
01/03:30pm 13.6 W 9 17 1006.2 - 0.0 - - - - - - -
01/03:00pm 13.9 WNW 11 24 1005.4 - 0.0 - - - - - - -
01/02:34pm 14.0 W 15 31 1005.1 - 0.0 - - - - - - -
01/02:30pm 14.2 WNW 13 31 1005.1 - 0.0 - - - - - - -
01/02:00pm 14.3 WNW 15 28 1004.7 - 0.0 - - - - - - -
01/01:38pm 14.3 WNW 15 27 1004.8 - 0.0 - - - - - - -
01/01:30pm 14.7 WNW 13 28 1004.6 - 0.0 - - - - - - -
01/01:03pm 14.2 WNW 15 30 1004.7 - 0.0 - - - - - - -
01/01:00pm 14.0 WNW 14 30 1004.7 - 0.0 - - - - - - -
01/12:36pm 13.9 WNW 15 30 1004.9 - 0.0 - - - - - - -
01/12:30pm 14.2 WNW 14 26 1004.7 - 0.0 - - - - - - -
01/12:17pm 14.0 WNW 15 30 1004.7 - 0.0 - - - - - - -
01/12:00pm 14.6 WNW 14 27 1005.0 - 0.0 - - - - - - -
01/11:51am 14.1 WNW 15 26 1005.1 - 0.0 - - - - - - -
01/11:30am 14.7 WNW 11 19 1005.1 - 0.0 - - - - - - -
01/11:00am 13.6 NW 13 22 1005.6 - 0.0 - - - - - - -
01/10:44am 13.5 WNW 15 25 1005.9 - 0.0 - - - - - - -
01/10:30am 13.7 WNW 12 21 1006.1 - 0.0 - - - - - - -
01/10:14am 13.1 NW 15 26 1006.3 - 0.0 - - - - - - -
01/10:00am 13.4 NW 10 20 1006.4 - 0.0 - - - - - - -
01/09:30am 13.4 WNW 7 13 1006.6 - 0.0 - - - - - - -
01/09:00am 13.2 WNW 8 13 1006.6 - 0.0 - - - - - - -
01/08:30am 12.9 WNW 9 17 1006.5 - 0.0 - - - - - - -
01/08:00am 12.2 NW 10 19 1006.0 - 0.0 - - - - - - -
01/07:30am 12.6 NW 8 13 1005.3 - 0.0 - - - - - - -
01/07:00am 12.9 NNW 6 9 1004.8 - 0.0 - - - - - - -
01/06:30am 13.3 NW 9 14 1004.6 - 0.0 - - - - - - -
01/06:00am 13.7 NW 9 15 1004.0 - 0.0 - - - - - - -
01/05:30am 14.1 NW 9 16 1003.6 - 0.0 - - - - - - -
01/05:00am 14.9 NW 9 19 1003.1 - 0.0 - - - - - - -
01/04:30am 15.5 WNW 8 15 1002.7 - 0.0 - - - - - - -
01/04:00am 16.3 WNW 7 16 1002.6 - 0.0 - - - - - - -
01/03:30am 17.2 WNW 6 9 1002.3 - 0.0 - - - - - - -
01/03:00am 18.1 NNW 8 14 1001.9 - 0.0 - - - - - - -
01/02:30am 19.0 NW 9 16 1001.7 - 0.0 - - - - - - -
01/02:00am 19.7 NW 11 20 1001.5 - 0.0 - - - - - - -
01/01:30am 20.2 NNW 15 29 1000.6 - 0.0 - - - - - - -
01/01:01am 20.2 NNW 15 26 1000.7 - 0.0 - - - - - - -
01/01:00am 20.2 NNW 16 26 1000.7 - 0.0 - - - - - - -
01/12:30am 20.2 NNW 17 28 1000.7 - 0.0 - - - - - - -
01/12:12am 20.2 NNW 15 27 1001.1 - 0.0 - - - - - - -
01/12:00am 20.0 NNW 14 24 1001.3 - 0.0 - - - - - - -
 
Date/Time
EST
Temp

°C
Wind Pressure Rain
since 9am
mm
Weather Cloud Vis
km
Sea
Height
m
Swell
Dir
 
Speed
knots
Gust
knots
hPa Trend Height
m
Period
s
Dir
31/11:30pm 20.1 NNW 12 22 1001.7 - 0.0 - - - - - - -
31/11:00pm 19.7 NNW 11 18 1002.2 - 0.0 - - - - - - -
31/10:30pm 19.8 NNW 10 16 1002.6 - 0.0 - - - - - - -
31/10:00pm 19.9 NNW 10 17 1002.6 - 0.0 - - - - - - -
31/09:30pm 19.8 NNW 10 18 1002.6 - 0.0 - - - - - - -
31/09:00pm 19.8 N 10 20 1002.6 - 0.0 - - - - - - -
31/08:30pm 19.8 NNW 9 18 1002.4 - 0.0 - - - - - - -
31/08:00pm 20.1 NNW 11 21 1002.2 - 0.0 - - - - - - -
31/07:30pm 19.8 N 10 19 1002.0 - 0.0 - - - - - - -
31/07:00pm 19.8 N 11 18 1001.6 - 0.0 - - - - - - -
31/06:30pm 20.0 N 8 20 1002.0 - 0.0 - - - - - - -
31/06:04pm 20.2 NNW 15 29 1001.7 - 0.0 - - - - - - -
31/06:00pm 20.1 NNW 14 29 1001.8 - 0.0 - - - - - - -
31/05:47pm 20.3 NNW 15 26 1001.6 - 0.0 - - - - - - -
31/05:30pm 20.1 NNW 12 21 1001.7 - 0.0 - - - - - - -
31/05:00pm 20.8 NNW 16 28 1001.3 - 0.0 - - - - - - -
31/04:50pm 21.0 NNW 15 31 1001.3 - 0.0 - - - - - - -
31/04:30pm 21.4 NNW 11 25 1002.0 - 0.0 - - - - - - -
31/04:11pm 21.9 NNW 15 27 1002.0 - 0.0 - - - - - - -
31/04:00pm 21.9 NNW 11 20 1002.2 - 0.0 - - - - - - -
31/03:30pm 22.3 NNW 18 30 1002.2 - 0.0 - - - - - - -
31/03:00pm 22.2 NNW 19 36 1002.3 - 0.0 - - - - - - -
31/02:30pm 22.5 NNW 17 29 1003.0 - 0.0 - - - - - - -
31/02:27pm 22.4 NNW 15 29 1003.0 - 0.0 - - - - - - -
31/02:00pm 22.6 NNW 13 22 1003.7 - 0.0 - - - - - - -
31/01:30pm 22.3 NNW 16 29 1004.0 - 0.0 - - - - - - -
31/01:00pm 22.3 NNW 15 26 1004.8 - 0.0 - - - - - - -
31/12:30pm 22.4 NW 16 29 1005.5 - 0.0 - - - - - - -
31/12:02pm 22.1 NW 15 27 1006.5 - 0.0 - - - - - - -
31/12:00pm 22.0 NW 14 22 1006.6 - 0.0 - - - - - - -
31/11:30am 21.5 NW 15 31 1007.4 - 0.0 - - - - - - -
31/11:08am 21.3 NW 15 25 1007.9 - 0.0 - - - - - - -
31/11:00am 21.1 NNW 15 23 1008.0 - 0.0 - - - - - - -
31/10:32am 20.8 NW 15 26 1008.6 - 0.0 - - - - - - -
31/10:30am 20.7 NW 14 26 1008.4 - 0.0 - - - - - - -
31/10:00am 20.0 NNW 13 25 1009.2 - 0.0 - - - - - - -
31/09:30am 18.0 N 8 15 1009.9 - 0.0 - - - - - - -
31/09:00am 16.9 N 8 14 1010.1 - 0.0 - - - - - - -
31/08:30am 17.1 NNW 9 13 1010.4 - 0.0 - - - - - - -
31/08:00am 16.4 NNW 8 14 1010.7 - 0.0 - - - - - - -
31/07:30am 15.8 N 5 8 1010.6 - 0.0 - - - - - - -
31/07:00am 15.4 N 8 12 1010.8 - 0.0 - - - - - - -
31/06:30am 15.1 N 6 9 1011.0 - 0.0 - - - - - - -
31/06:00am 15.4 N 5 9 1010.9 - 0.0 - - - - - - -
31/05:30am 15.4 N 4 8 1010.9 - 0.0 - - - - - - -
31/05:00am 15.7 N 8 16 1011.1 - 0.0 - - - - - - -
31/04:30am 16.0 N 6 11 1011.1 - 0.0 - - - - - - -
31/04:00am 15.8 NNW 7 11 1011.4 - 0.0 - - - - - - -
31/03:30am 16.4 NNW 10 14 1011.4 - 0.0 - - - - - - -
31/03:00am 17.4 NW 13 22 1011.4 - 0.0 - - - - - - -
31/02:40am 17.6 NW 15 26 1011.0 - 0.0 - - - - - - -
31/02:30am 17.5 NW 11 20 1011.3 - 0.0 - - - - - - -
31/02:00am 17.5 WNW 14 26 1011.5 - 0.0 - - - - - - -
31/01:38am 17.9 WNW 18 28 1011.4 - 0.0 - - - - - - -
31/01:30am 17.7 NW 8 21 1011.7 - 0.0 - - - - - - -
31/01:00am 17.9 WNW 10 22 1012.4 - 0.0 - - - - - - -
31/12:30am 17.4 WNW 9 19 1012.5 - 0.0 - - - - - - -
31/12:00am 14.4 NW 2 5 1012.9 - 0.0 - - - - - - -
 
Date/Time
EST
Temp

°C
Wind Pressure Rain
since 9am
mm
Weather Cloud Vis
km
Sea
Height
m
Swell
Dir
 
Speed
knots
Gust
knots
hPa Trend Height
m
Period
s
Dir
30/11:30pm 15.7 NNE 4 6 1013.1 - 0.0 - - - - - - -
30/11:00pm 15.7 N 2 4 1013.5 - 0.0 - - - - - - -
30/10:30pm 15.4 NE 2 5 1013.7 - 0.0 - - - - - - -
30/10:00pm 16.3 NE 2 4 1013.9 - 0.0 - - - - - - -
30/09:30pm 16.6 NE 6 8 1014.1 - 0.0 - - - - - - -
30/09:00pm 16.7 N 3 6 1014.2 - 0.0 - - - - - - -
30/08:30pm 17.2 NNW 3 6 1014.4 - 0.0 - - - - - - -
30/08:00pm 17.7 NW 6 13 1014.7 - 0.0 - - - - - - -
30/07:30pm 18.0 NW 9 18 1014.6 - 0.0 - - - - - - -
30/07:00pm 17.8 NW 7 14 1014.6 - 0.0 - - - - - - -

Other Formats:

Comma delimited format used in spreadsheet applications
http://www.bom.gov.au/fwo/IDN60701/IDN60701.94938.axf

JavaScript Object Notation format (JSON) in row-major order
http://www.bom.gov.au/fwo/IDN60701/IDN60701.94938.json